createdAt,value
2023-01-01T00:01:40.074Z,63.80
2023-01-01T00:04:08.892Z,63.84
2023-01-01T00:06:35.375Z,63.57
2023-01-01T00:09:20.967Z,63.84
2023-01-01T00:11:47.373Z,63.91
2023-01-01T00:14:13.788Z,63.55
2023-01-01T00:16:40.292Z,63.65
2023-01-01T00:19:06.841Z,63.57
2023-01-01T00:21:33.242Z,63.81
2023-01-01T00:23:59.709Z,63.50
2023-01-01T00:26:29.555Z,63.33
2023-01-01T00:29:01.220Z,63.39
2023-01-01T00:31:27.805Z,63.14
2023-01-01T00:33:55.520Z,63.32
2023-01-01T00:36:23.711Z,63.18
2023-01-01T00:38:50.252Z,63.28
2023-01-01T00:41:17.850Z,63.27
2023-01-01T00:43:44.730Z,63.27
2023-01-01T00:46:11.694Z,63.09
2023-01-01T00:48:38.578Z,63.28
2023-01-01T00:51:05.771Z,63.22
2023-01-01T00:53:32.447Z,63.22
2023-01-01T00:55:58.925Z,63.17
2023-01-01T00:58:25.623Z,62.99
2023-01-01T01:00:52.742Z,62.74
2023-01-01T01:03:28.802Z,62.49
2023-01-01T01:06:09.024Z,62.30
2023-01-01T01:08:36.608Z,62.26
2023-01-01T01:11:10.409Z,62.30
2023-01-01T01:13:37.534Z,62.18
2023-01-01T01:16:12.924Z,62.15
2023-01-01T01:18:39.522Z,61.96
2023-01-01T01:21:06.136Z,61.72
2023-01-01T01:23:33.034Z,61.53
2023-01-01T01:26:10.958Z,61.41
2023-01-01T01:28:37.512Z,61.07
2023-01-01T01:31:04.453Z,61.01
2023-01-01T01:33:31.133Z,60.67
2023-01-01T01:35:57.533Z,60.50
2023-01-01T01:38:24.029Z,60.40
2023-01-01T01:40:50.448Z,60.40
2023-01-01T01:43:26.375Z,60.30
2023-01-01T01:45:56.890Z,60.43
2023-01-01T01:48:23.467Z,60.38
2023-01-01T01:50:50.423Z,60.57
2023-01-01T01:53:29.920Z,60.67
2023-01-01T01:55:59.907Z,60.74
2023-01-01T01:58:28.160Z,60.91
2023-01-01T02:00:55.140Z,61.14
2023-01-01T02:03:24.368Z,61.01
2023-01-01T02:05:51.455Z,61.17
2023-01-01T02:08:19.202Z,61.70
2023-01-01T02:10:45.692Z,61.51
2023-01-01T02:13:12.161Z,61.26
2023-01-01T02:15:52.080Z,61.45
2023-01-01T02:18:24.800Z,61.47
2023-01-01T02:21:00.058Z,61.65
2023-01-01T02:23:42.624Z,61.67
2023-01-01T02:26:38.691Z,61.94
2023-01-01T02:29:09.027Z,61.95
2023-01-01T02:31:39.680Z,62.10
2023-01-01T02:34:09.190Z,61.99
2023-01-01T02:36:39.652Z,62.16
2023-01-01T02:39:07.826Z,62.40
2023-01-01T02:41:39.075Z,62.38
2023-01-01T02:46:32.652Z,62.49
2023-01-01T02:49:01.264Z,62.45
2023-01-01T02:51:52.929Z,62.42
2023-01-01T02:54:19.259Z,62.52
2023-01-01T02:56:58.146Z,62.52
2023-01-01T02:59:52.344Z,62.41
2023-01-01T03:02:30.839Z,62.36
2023-01-01T03:05:06.367Z,62.50
2023-01-01T03:08:02.607Z,62.58
2023-01-01T03:10:42.946Z,62.26
2023-01-01T03:13:09.254Z,62.23
2023-01-01T03:15:45.586Z,62.22
2023-01-01T03:18:20.055Z,62.20
2023-01-01T03:20:49.175Z,62.09
2023-01-01T03:23:20.198Z,61.99
2023-01-01T03:25:49.266Z,61.61
2023-01-01T03:28:22.870Z,61.56
2023-01-01T03:30:50.787Z,61.46
2023-01-01T03:33:35.972Z,61.60
2023-01-01T03:36:08.638Z,61.50
2023-01-01T03:39:10.365Z,61.42
2023-01-01T03:42:05.956Z,61.32
2023-01-01T03:44:40.984Z,61.03
2023-01-01T03:47:07.474Z,60.98
2023-01-01T03:49:34.187Z,60.68
2023-01-01T03:52:12.427Z,60.64
2023-01-01T03:54:46.175Z,60.17
2023-01-01T03:57:19.548Z,60.26
2023-01-01T04:00:06.137Z,60.10
2023-01-01T04:02:37.230Z,60.13
2023-01-01T04:05:04.975Z,59.97
2023-01-01T04:07:31.641Z,59.98
2023-01-01T04:09:59.718Z,59.92
2023-01-01T04:12:26.639Z,59.94
2023-01-01T04:14:53.048Z,60.00
2023-01-01T04:17:19.626Z,59.88
2023-01-01T04:19:50.188Z,59.74
2023-01-01T04:22:23.231Z,59.35
2023-01-01T04:24:49.744Z,59.62
2023-01-01T04:27:16.191Z,59.57
2023-01-01T04:29:42.620Z,59.63
2023-01-01T04:32:09.060Z,59.92
2023-01-01T04:34:35.459Z,59.63
2023-01-01T04:37:01.865Z,59.85
2023-01-01T04:39:28.323Z,59.96
2023-01-01T04:41:54.744Z,59.99
2023-01-01T04:44:21.146Z,59.85
2023-01-01T04:46:47.589Z,59.99
2023-01-01T04:49:13.997Z,59.94
2023-01-01T04:51:40.398Z,59.83
2023-01-01T04:54:06.831Z,59.68
2023-01-01T04:56:33.383Z,59.56
2023-01-01T04:58:59.792Z,59.42
2023-01-01T05:01:28.176Z,59.44
2023-01-01T05:03:55.692Z,59.15
2023-01-01T05:06:22.540Z,58.94
2023-01-01T05:08:49.997Z,58.81
2023-01-01T05:11:19.277Z,58.71
2023-01-01T05:13:48.335Z,58.48
2023-01-01T05:16:16.978Z,58.32
2023-01-01T05:18:44.228Z,58.20
2023-01-01T05:21:15.976Z,58.12
2023-01-01T05:23:42.420Z,57.87
2023-01-01T05:26:11.008Z,57.81
2023-01-01T05:28:37.959Z,57.95
2023-01-01T05:31:09.028Z,57.92
2023-01-01T05:33:35.949Z,57.79
2023-01-01T05:36:03.724Z,57.93
2023-01-01T05:38:30.308Z,57.67
2023-01-01T05:40:56.815Z,57.86
2023-01-01T05:43:23.347Z,57.66
2023-01-01T05:45:49.890Z,57.63
2023-01-01T05:48:16.356Z,57.80
2023-01-01T05:50:42.784Z,57.82
2023-01-01T05:53:09.202Z,57.89
2023-01-01T05:55:35.634Z,57.80
2023-01-01T05:58:02.063Z,58.33
2023-01-01T06:00:28.575Z,58.30
2023-01-01T06:02:55.119Z,58.43
2023-01-01T06:05:21.601Z,58.61
2023-01-01T06:07:48.765Z,58.64
2023-01-01T06:10:15.504Z,58.75
2023-01-01T06:12:41.935Z,58.91
2023-01-01T06:15:08.786Z,59.12
2023-01-01T06:17:35.217Z,59.10
2023-01-01T06:20:01.685Z,59.10
2023-01-01T06:22:28.106Z,59.38
2023-01-01T06:24:54.504Z,59.50
2023-01-01T06:27:20.991Z,59.72
2023-01-01T06:29:47.412Z,59.86
2023-01-01T06:32:13.826Z,59.88
2023-01-01T06:34:40.221Z,59.97
2023-01-01T06:37:07.285Z,59.99
2023-01-01T06:39:33.783Z,59.86
2023-01-01T06:42:00.229Z,59.79
2023-01-01T06:44:26.616Z,60.06
2023-01-01T06:46:53.050Z,59.80
2023-01-01T06:49:19.457Z,59.68
2023-01-01T06:51:45.867Z,59.84
2023-01-01T06:54:12.391Z,59.80
2023-01-01T06:56:39.047Z,59.88
2023-01-01T06:59:05.576Z,59.80
2023-01-01T07:01:33.674Z,59.56
2023-01-01T07:04:05.534Z,59.99
2023-01-01T07:06:33.351Z,59.67
2023-01-01T07:09:00.841Z,59.60
2023-01-01T07:11:27.834Z,59.71
2023-01-01T07:13:54.681Z,59.75
2023-01-01T07:16:22.294Z,59.70
2023-01-01T07:18:50.412Z,59.87
2023-01-01T07:21:29.931Z,59.67
2023-01-01T07:23:57.998Z,59.68
2023-01-01T07:26:25.493Z,60.10
2023-01-01T07:28:52.236Z,59.98
2023-01-01T07:31:18.695Z,59.99
2023-01-01T07:33:45.189Z,59.86
2023-01-01T07:36:11.599Z,59.82
2023-01-01T07:38:38.040Z,59.73
2023-01-01T07:41:04.527Z,59.61
2023-01-01T07:43:31.173Z,59.77
2023-01-01T07:45:58.902Z,59.96
2023-01-01T07:48:25.438Z,60.09
2023-01-01T07:50:51.841Z,60.23
2023-01-01T07:53:18.244Z,60.08
2023-01-01T07:55:45.716Z,60.63
2023-01-01T07:58:12.239Z,60.71
2023-01-01T08:00:38.995Z,60.98
2023-01-01T08:03:06.901Z,60.99
2023-01-01T08:05:35.752Z,61.79
2023-01-01T08:08:02.209Z,61.71
2023-01-01T08:10:28.674Z,61.50
2023-01-01T08:13:02.560Z,61.54
2023-01-01T08:15:29.071Z,61.67
2023-01-01T08:17:57.361Z,61.79
2023-01-01T08:20:23.778Z,61.84
2023-01-01T08:22:50.233Z,62.07
2023-01-01T08:25:16.703Z,62.00
2023-01-01T08:27:43.129Z,62.11
2023-01-01T08:30:11.841Z,62.22
2023-01-01T08:32:38.343Z,62.33
2023-01-01T08:35:05.467Z,62.36
2023-01-01T08:37:31.942Z,62.23
2023-01-01T08:39:58.337Z,62.31
2023-01-01T08:42:24.742Z,62.27
2023-01-01T08:44:51.173Z,62.11
2023-01-01T08:47:23.090Z,62.20
2023-01-01T08:49:49.622Z,61.93
2023-01-01T08:52:16.492Z,62.08
2023-01-01T08:54:43.049Z,62.09
2023-01-01T08:57:10.152Z,62.02
2023-01-01T08:59:36.788Z,61.81
2023-01-01T09:02:03.487Z,61.91
2023-01-01T09:04:30.072Z,61.93
2023-01-01T09:06:56.467Z,61.86
2023-01-01T09:09:29.171Z,62.09
2023-01-01T09:12:04.221Z,62.14
2023-01-01T09:14:30.909Z,62.26
2023-01-01T09:16:57.450Z,62.32
2023-01-01T09:19:23.876Z,62.29
2023-01-01T09:21:50.661Z,62.38
2023-01-01T09:24:17.112Z,62.35
2023-01-01T09:26:43.547Z,62.46
2023-01-01T09:29:09.968Z,62.19
2023-01-01T09:31:36.441Z,62.43
2023-01-01T09:34:02.909Z,62.25
2023-01-01T09:36:31.499Z,62.66
2023-01-01T09:38:58.967Z,62.59
2023-01-01T09:41:56.070Z,62.30
2023-01-01T09:44:50.632Z,62.22
2023-01-01T09:47:24.718Z,62.32
2023-01-01T09:49:52.677Z,62.22
2023-01-01T09:52:20.185Z,61.91
2023-01-01T09:54:57.458Z,62.22
2023-01-01T09:57:31.153Z,61.87
2023-01-01T09:59:59.453Z,61.71
2023-01-01T10:02:39.888Z,61.63
2023-01-01T10:05:26.389Z,61.69
2023-01-01T10:08:11.583Z,61.31
2023-01-01T10:10:50.101Z,61.63
2023-01-01T10:13:27.437Z,61.86
2023-01-01T10:16:04.638Z,61.90
2023-01-01T10:18:33.544Z,61.90
2023-01-01T10:21:15.761Z,61.98
2023-01-01T10:23:49.623Z,61.86
2023-01-01T10:26:17.408Z,61.90
2023-01-01T10:29:12.589Z,61.83
2023-01-01T10:31:42.011Z,61.93
2023-01-01T10:34:23.370Z,62.36
2023-01-01T10:36:53.897Z,62.15
2023-01-01T10:39:20.388Z,62.07
2023-01-01T10:41:47.448Z,62.15
2023-01-01T10:44:16.093Z,62.39
2023-01-01T10:46:47.376Z,62.83
2023-01-01T10:49:15.964Z,62.71
2023-01-01T10:51:44.313Z,62.53
2023-01-01T10:54:37.737Z,62.54
2023-01-01T10:57:28.991Z,62.55
2023-01-01T11:00:09.864Z,62.74
2023-01-01T11:02:37.277Z,62.41
2023-01-01T11:05:30.101Z,62.14
2023-01-01T11:07:56.524Z,62.26
2023-01-01T11:10:25.625Z,62.14
2023-01-01T11:13:09.826Z,61.84
2023-01-01T11:15:41.480Z,61.81
2023-01-01T11:18:13.869Z,62.13
2023-01-01T11:20:41.302Z,61.99
2023-01-01T11:23:20.712Z,61.88
2023-01-01T11:25:59.068Z,62.03
2023-01-01T11:28:26.211Z,61.93
2023-01-01T11:31:03.275Z,61.96
2023-01-01T11:33:32.658Z,62.09
2023-01-01T11:35:59.204Z,62.08
2023-01-01T11:38:29.954Z,62.12
2023-01-01T11:41:02.634Z,62.37
2023-01-01T11:43:31.510Z,62.52
2023-01-01T11:45:58.506Z,62.61
2023-01-01T11:48:30.925Z,62.45
2023-01-01T11:50:59.015Z,62.83
2023-01-01T11:53:25.778Z,63.29
2023-01-01T11:56:00.371Z,63.05
2023-01-01T11:58:37.605Z,63.07
2023-01-01T12:01:24.608Z,63.25
2023-01-01T12:03:57.947Z,63.45
2023-01-01T12:06:36.488Z,63.12
2023-01-01T12:09:17.756Z,63.18
2023-01-01T12:11:49.814Z,63.43
2023-01-01T12:14:27.108Z,63.59
2023-01-01T12:17:10.177Z,63.46
2023-01-01T12:19:42.441Z,63.34
2023-01-01T12:22:16.272Z,63.32
2023-01-01T12:24:43.277Z,63.42
2023-01-01T12:27:19.213Z,63.39
2023-01-01T12:29:58.540Z,63.02
2023-01-01T12:32:47.936Z,62.98
2023-01-01T12:35:39.153Z,62.98
2023-01-01T12:38:18.120Z,62.63
2023-01-01T12:41:08.725Z,62.51
2023-01-01T12:44:11.645Z,62.64
2023-01-01T12:46:59.871Z,62.47
2023-01-01T12:49:41.404Z,62.25
2023-01-01T12:52:07.687Z,62.25
2023-01-01T12:55:11.191Z,62.38
2023-01-01T12:57:51.707Z,62.41
2023-01-01T13:00:19.711Z,62.32
2023-01-01T13:02:52.640Z,62.38
2023-01-01T13:05:24.125Z,62.71
2023-01-01T13:07:54.192Z,62.89
2023-01-01T13:10:34.224Z,63.14
2023-01-01T13:13:01.281Z,63.42
2023-01-01T13:15:40.194Z,63.66
2023-01-01T13:18:15.671Z,63.94
2023-01-01T13:20:45.179Z,64.37
2023-01-01T13:23:29.835Z,64.56
2023-01-01T13:26:17.868Z,64.86
2023-01-01T13:28:44.161Z,63.87
2023-01-01T13:31:10.594Z,63.38
2023-01-01T13:33:37.180Z,63.08
2023-01-01T13:36:12.739Z,63.09
2023-01-01T13:38:52.368Z,62.97
2023-01-01T13:41:44.257Z,62.44
2023-01-01T13:44:19.691Z,62.51
2023-01-01T13:47:06.684Z,62.59
2023-01-01T13:49:54.968Z,62.91
2023-01-01T13:52:54.815Z,63.31
2023-01-01T13:55:50.115Z,63.56
2023-01-01T13:58:42.663Z,63.62
2023-01-01T14:01:12.086Z,63.81
2023-01-01T14:03:42.340Z,64.11
2023-01-01T14:06:16.169Z,64.15
2023-01-01T14:08:42.565Z,64.51
2023-01-01T14:11:21.415Z,64.63
2023-01-01T14:13:47.975Z,64.80
2023-01-01T14:16:15.861Z,64.97
2023-01-01T14:18:45.409Z,65.40
2023-01-01T14:21:16.739Z,65.55
2023-01-01T14:23:45.655Z,66.09
2023-01-01T14:26:14.063Z,66.16
2023-01-01T14:28:41.018Z,66.43
2023-01-01T14:31:12.166Z,66.47
2023-01-01T14:33:39.408Z,66.36
2023-01-01T14:36:15.795Z,66.24
2023-01-01T14:38:47.050Z,66.50
2023-01-01T14:41:27.967Z,66.44
2023-01-01T14:43:56.552Z,66.43
2023-01-01T14:46:25.310Z,66.54
2023-01-01T14:48:54.351Z,66.83
2023-01-01T14:51:23.291Z,66.81
2023-01-01T14:53:50.544Z,66.71
2023-01-01T14:56:28.556Z,66.79
2023-01-01T14:59:07.208Z,66.71
2023-01-01T15:01:33.760Z,66.62
2023-01-01T15:04:02.951Z,66.67
2023-01-01T15:06:29.988Z,66.56
2023-01-01T15:08:57.753Z,66.68
2023-01-01T15:11:28.825Z,66.45
2023-01-01T15:14:01.163Z,66.67
2023-01-01T15:16:30.242Z,66.66
2023-01-01T15:18:58.595Z,66.64
2023-01-01T15:21:31.089Z,66.83
2023-01-01T15:24:12.850Z,66.71
2023-01-01T15:26:44.709Z,66.84
2023-01-01T15:29:18.052Z,67.12
2023-01-01T15:31:49.810Z,66.91
2023-01-01T15:34:21.750Z,66.95
2023-01-01T15:36:48.695Z,66.87
2023-01-01T15:39:15.229Z,66.84
2023-01-01T15:41:49.930Z,67.00
2023-01-01T15:44:26.123Z,66.98
2023-01-01T15:46:52.777Z,67.14
2023-01-01T15:49:29.750Z,67.45
2023-01-01T15:51:59.500Z,67.61
2023-01-01T15:54:26.433Z,67.67
2023-01-01T15:56:53.160Z,67.85
2023-01-01T15:59:33.279Z,67.34
2023-01-01T16:02:06.501Z,67.17
2023-01-01T16:04:33.345Z,67.54
2023-01-01T16:07:00.268Z,67.63
2023-01-01T16:09:26.714Z,67.61
2023-01-01T16:11:54.900Z,68.11
2023-01-01T16:14:21.840Z,68.20
2023-01-01T16:16:56.706Z,68.12
2023-01-01T16:19:24.573Z,68.19
2023-01-01T16:21:50.994Z,68.12
2023-01-01T16:24:19.206Z,68.27
2023-01-01T16:26:46.462Z,69.04
2023-01-01T16:29:12.886Z,69.63
2023-01-01T16:31:39.956Z,70.20
2023-01-01T16:34:07.163Z,70.55
2023-01-01T16:36:33.622Z,70.76
2023-01-01T16:39:00.325Z,70.90
2023-01-01T16:41:28.649Z,71.28
2023-01-01T16:43:55.331Z,71.44
2023-01-01T16:46:21.832Z,71.62
2023-01-01T16:48:48.326Z,71.91
2023-01-01T16:51:24.659Z,71.97
2023-01-01T16:53:51.083Z,72.28
2023-01-01T16:56:18.520Z,72.43
2023-01-01T16:58:50.403Z,72.64
2023-01-01T17:01:18.815Z,72.98
2023-01-01T17:03:45.335Z,73.11
2023-01-01T17:06:12.064Z,73.25
2023-01-01T17:08:38.856Z,73.52
2023-01-01T17:11:11.903Z,73.57
2023-01-01T17:13:39.406Z,73.81
2023-01-01T17:16:06.346Z,73.89
2023-01-01T17:19:04.076Z,74.26
2023-01-01T17:21:19.620Z,74.05
2023-01-01T17:23:46.068Z,73.84
2023-01-01T17:26:15.985Z,73.23
2023-01-01T17:28:43.323Z,73.09
2023-01-01T17:31:12.444Z,73.02
2023-01-01T17:33:39.521Z,72.83
2023-01-01T17:36:06.626Z,73.00
2023-01-01T17:38:33.365Z,72.88
2023-01-01T17:41:04.436Z,72.97
2023-01-01T17:43:33.439Z,72.93
2023-01-01T17:46:14.640Z,72.71
2023-01-01T17:48:41.709Z,72.69
2023-01-01T17:51:08.419Z,72.89
2023-01-01T17:53:34.991Z,72.98
2023-01-01T17:56:01.414Z,73.59
2023-01-01T17:58:33.578Z,74.49
2023-01-01T18:01:19.363Z,74.96
2023-01-01T18:03:45.881Z,75.64
2023-01-01T18:06:12.285Z,75.86
2023-01-01T18:08:38.891Z,75.79
2023-01-01T18:11:06.283Z,76.05
2023-01-01T18:13:32.789Z,76.01
2023-01-01T18:16:07.823Z,76.44
2023-01-01T18:18:38.730Z,75.93
2023-01-01T18:21:14.180Z,75.87
2023-01-01T18:23:41.370Z,76.06
2023-01-01T18:26:09.715Z,76.21
2023-01-01T18:28:36.167Z,76.18
2023-01-01T18:31:10.568Z,76.30
2023-01-01T18:33:37.067Z,76.23
2023-01-01T18:36:09.145Z,76.27
2023-01-01T18:38:35.994Z,76.16
2023-01-01T18:41:21.213Z,76.35
2023-01-01T18:43:47.625Z,76.30
2023-01-01T18:46:14.090Z,76.34
2023-01-01T18:48:42.607Z,76.09
2023-01-01T18:51:22.127Z,76.29
2023-01-01T18:53:49.574Z,76.40
2023-01-01T18:56:16.009Z,76.20
2023-01-01T18:58:43.214Z,76.28
2023-01-01T19:01:16.310Z,75.96
2023-01-01T19:03:42.898Z,76.46
2023-01-01T19:06:26.814Z,76.22
2023-01-01T19:09:23.420Z,76.20
2023-01-01T19:11:51.827Z,76.19
2023-01-01T19:14:23.360Z,76.14
2023-01-01T19:16:51.967Z,75.84
2023-01-01T19:19:23.052Z,76.09
2023-01-01T19:21:52.393Z,75.92
2023-01-01T19:24:24.388Z,75.80
2023-01-01T19:26:59.685Z,75.80
2023-01-01T19:29:29.524Z,75.25
2023-01-01T19:31:57.569Z,75.17
2023-01-01T19:34:24.737Z,75.14
2023-01-01T19:36:51.630Z,75.49
2023-01-01T19:39:18.098Z,74.94
2023-01-01T19:41:44.557Z,75.01
2023-01-01T19:44:11.102Z,75.16
2023-01-01T19:46:37.630Z,75.12
2023-01-01T19:49:04.322Z,75.25
2023-01-01T19:51:30.731Z,75.42
2023-01-01T19:53:57.263Z,75.54
2023-01-01T19:56:23.712Z,75.48
2023-01-01T19:58:50.251Z,75.28
2023-01-01T20:01:16.835Z,75.58
2023-01-01T20:03:59.071Z,75.45
2023-01-01T20:06:26.723Z,75.33
2023-01-01T20:08:53.544Z,75.13
2023-01-01T20:11:20.949Z,75.25
2023-01-01T20:13:47.460Z,75.45
2023-01-01T20:16:13.946Z,75.27
2023-01-01T20:18:40.417Z,75.27
2023-01-01T20:21:26.747Z,75.21
2023-01-01T20:23:54.282Z,75.27
2023-01-01T20:26:20.807Z,75.32
2023-01-01T20:29:06.023Z,75.34
2023-01-01T20:31:32.486Z,75.14
2023-01-01T20:33:58.977Z,75.13
2023-01-01T20:36:44.024Z,75.05
2023-01-01T20:39:10.445Z,75.03
2023-01-01T20:41:36.904Z,75.14
2023-01-01T20:44:03.342Z,74.92
2023-01-01T20:46:29.996Z,74.85
2023-01-01T20:48:57.110Z,75.09
2023-01-01T20:51:23.507Z,75.00
2023-01-01T20:53:53.289Z,75.02
2023-01-01T20:56:19.729Z,74.92
2023-01-01T20:58:50.139Z,75.06
2023-01-01T21:01:19.787Z,74.98
2023-01-01T21:03:46.342Z,75.10
2023-01-01T21:06:14.269Z,74.90
2023-01-01T21:08:42.445Z,75.25
2023-01-01T21:11:08.922Z,75.16
2023-01-01T21:13:35.367Z,75.28
2023-01-01T21:16:19.501Z,75.27
2023-01-01T21:18:46.937Z,75.15
2023-01-01T21:21:18.510Z,75.38
2023-01-01T21:23:45.009Z,75.30
2023-01-01T21:26:23.122Z,75.30
2023-01-01T21:28:49.540Z,75.48
2023-01-01T21:31:16.052Z,75.55
2023-01-01T21:33:43.547Z,75.60
2023-01-01T21:36:22.023Z,75.84
2023-01-01T21:38:48.979Z,75.83
2023-01-01T21:41:20.290Z,75.74
2023-01-01T21:43:50.126Z,75.63
2023-01-01T21:46:29.402Z,75.86
2023-01-01T21:49:01.840Z,75.81
2023-01-01T21:51:33.553Z,75.98
2023-01-01T21:54:02.586Z,76.05
2023-01-01T21:56:28.880Z,76.01
2023-01-01T21:59:19.894Z,76.14
2023-01-01T22:01:48.797Z,76.08
2023-01-01T22:04:26.505Z,76.16
2023-01-01T22:07:00.318Z,76.41
2023-01-01T22:09:30.949Z,76.33
2023-01-01T22:12:00.734Z,76.24
2023-01-01T22:14:34.670Z,76.23
2023-01-01T22:17:01.147Z,76.37
2023-01-01T22:19:32.340Z,76.19
2023-01-01T22:21:59.474Z,76.35
2023-01-01T22:24:34.181Z,76.29
2023-01-01T22:27:16.523Z,76.29
2023-01-01T22:29:43.989Z,76.23
2023-01-01T22:32:20.846Z,76.23
2023-01-01T22:34:48.216Z,75.91
2023-01-01T22:37:19.178Z,75.92
2023-01-01T22:39:46.244Z,75.88
2023-01-01T22:42:15.557Z,75.81
2023-01-01T22:44:42.309Z,75.85
2023-01-01T22:47:12.891Z,75.84
2023-01-01T22:49:40.354Z,75.35
2023-01-01T22:52:08.194Z,75.40
2023-01-01T22:54:34.700Z,75.41
2023-01-01T22:57:01.781Z,75.27
2023-01-01T22:59:28.191Z,75.39
2023-01-01T23:01:54.666Z,75.43
2023-01-01T23:04:21.132Z,75.59
2023-01-01T23:06:47.765Z,75.79
2023-01-01T23:09:14.253Z,75.64
2023-01-01T23:11:40.672Z,75.66
2023-01-01T23:14:25.708Z,75.80
2023-01-01T23:16:52.110Z,75.74
2023-01-01T23:19:18.788Z,75.91
2023-01-01T23:21:45.502Z,75.82
2023-01-01T23:24:14.819Z,75.72
2023-01-01T23:26:41.533Z,75.87
2023-01-01T23:29:08.730Z,75.89
2023-01-01T23:31:35.427Z,76.00
2023-01-01T23:34:02.226Z,76.13
2023-01-01T23:36:28.892Z,76.13
2023-01-01T23:38:55.333Z,75.97
2023-01-01T23:41:23.053Z,76.38
2023-01-01T23:43:49.950Z,76.31
2023-01-01T23:46:16.556Z,76.40
2023-01-01T23:48:43.921Z,76.53
2023-01-01T23:51:11.022Z,76.49
2023-01-01T23:53:37.481Z,76.60
2023-01-01T23:56:04.037Z,76.91
2023-01-01T23:58:30.462Z,76.91
